Time;durP1;ratioP1;P1;durP2;ratioP2;P2;SDS_P1;SDS_P2;PMS_P1;PMS_P2;Temp;Humidity;BMP_temperature;BMP_pressure;BME280_temperature;BME280_humidity;BME280_pressure;Samples;Min_cycle;Max_cycle;Signal;HPM_P1;HPM_P2
2022/12/06 00:01:13;;;;;;;11.43;9.73;;;2.20;99.90;;;;;;5072160;28;20182;-66
2022/12/06 00:03:41;;;;;;;10.83;9.83;;;2.20;99.90;;;;;;5073011;28;20202;-66
2022/12/06 00:06:12;;;;;;;12.20;11.07;;;2.20;99.90;;;;;;5072487;28;20198;-66
2022/12/06 00:08:39;;;;;;;14.63;10.10;;;2.20;99.90;;;;;;5072938;28;20185;-66
2022/12/06 00:11:05;;;;;;;11.93;8.73;;;2.20;99.90;;;;;;5072113;28;20224;-66
2022/12/06 00:13:31;;;;;;;14.93;9.93;;;2.20;99.90;;;;;;5072084;28;20184;-66
2022/12/06 00:16:01;;;;;;;11.67;10.57;;;2.20;99.90;;;;;;5068568;28;20666;-66
2022/12/06 00:18:27;;;;;;;12.00;9.73;;;2.20;99.90;;;;;;5072878;28;20194;-66
2022/12/06 00:20:52;;;;;;;11.13;10.03;;;2.10;99.90;;;;;;5071989;28;20682;-66
2022/12/06 00:23:18;;;;;;;11.13;10.03;;;2.20;99.90;;;;;;5072386;28;20668;-66
2022/12/06 00:25:44;;;;;;;15.63;9.10;;;2.20;99.90;;;;;;5054256;28;20232;-66
2022/12/06 00:28:09;;;;;;;10.67;9.87;;;2.20;99.90;;;;;;5072290;28;20212;-66
2022/12/06 00:30:35;;;;;;;11.37;10.27;;;2.20;99.90;;;;;;5071817;28;20182;-66
2022/12/06 00:33:00;;;;;;;17.60;11.43;;;2.30;99.90;;;;;;5072029;28;20292;-66
2022/12/06 00:35:26;;;;;;;13.87;9.03;;;2.20;99.90;;;;;;5071935;28;20201;-66
2022/12/06 00:37:52;;;;;;;10.07;8.80;;;2.20;99.90;;;;;;5072036;28;20207;-66
2022/12/06 00:40:17;;;;;;;13.03;9.93;;;2.20;99.90;;;;;;5071713;28;20177;-66
2022/12/06 00:42:43;;;;;;;11.80;10.33;;;2.30;99.90;;;;;;5072145;28;20168;-66
2022/12/06 00:45:09;;;;;;;11.03;10.10;;;2.30;99.90;;;;;;5071624;28;20190;-66
2022/12/06 00:47:35;;;;;;;11.13;10.03;;;2.20;99.90;;;;;;5062581;28;20174;-66
2022/12/06 00:50:00;;;;;;;9.53;8.73;;;2.30;99.90;;;;;;5053477;28;20167;-66
2022/12/06 00:52:26;;;;;;;10.90;9.90;;;2.30;99.90;;;;;;5072232;28;20631;-66
2022/12/06 00:54:51;;;;;;;11.57;10.37;;;2.20;99.90;;;;;;5071552;28;20206;-67
2022/12/06 00:57:17;;;;;;;14.93;11.90;;;2.30;99.90;;;;;;5055943;28;20261;-67
2022/12/06 00:59:43;;;;;;;12.57;10.13;;;2.30;99.90;;;;;;5071565;28;20181;-66
2022/12/06 01:02:08;;;;;;;17.40;11.83;;;2.30;99.90;;;;;;5071549;28;20175;-66
2022/12/06 01:04:36;;;;;;;12.60;11.03;;;2.30;99.90;;;;;;5071751;28;20178;-67
2022/12/06 01:07:02;;;;;;;17.27;12.10;;;2.30;99.90;;;;;;5071268;28;20178;-67
2022/12/06 01:09:29;;;;;;;11.53;9.50;;;2.40;99.90;;;;;;5071735;28;20208;-67
2022/12/06 01:11:57;;;;;;;14.00;12.67;;;2.40;99.90;;;;;;5071463;28;20593;-67
2022/12/06 01:14:23;;;;;;;11.83;10.60;;;2.40;99.90;;;;;;5071490;28;20193;-67
2022/12/06 01:16:48;;;;;;;13.80;11.67;;;2.40;99.90;;;;;;5071204;28;20216;-66
2022/12/06 01:19:14;;;;;;;15.70;10.93;;;2.40;99.90;;;;;;5071246;28;20170;-67
2022/12/06 01:21:39;;;;;;;12.67;11.23;;;2.40;99.90;;;;;;5065843;28;20571;-67
2022/12/06 01:24:05;;;;;;;13.37;11.97;;;2.40;99.90;;;;;;5071177;28;20170;-67
2022/12/06 01:26:33;;;;;;;25.00;12.73;;;2.40;99.90;;;;;;5070670;28;20217;-67
2022/12/06 01:29:00;;;;;;;14.23;10.93;;;2.40;99.90;;;;;;5071273;28;20183;-67
2022/12/06 01:31:27;;;;;;;12.80;11.47;;;2.40;99.90;;;;;;5070943;28;20264;-67
2022/12/06 01:33:53;;;;;;;16.20;10.93;;;2.40;99.90;;;;;;5071725;28;20520;-67
2022/12/06 01:36:22;;;;;;;14.10;10.60;;;2.40;99.90;;;;;;5071165;28;20220;-67
2022/12/06 01:38:55;;;;;;;14.70;10.20;;;2.40;99.90;;;;;;5071508;28;20599;-66
2022/12/06 01:41:22;;;;;;;16.90;12.13;;;2.50;99.90;;;;;;5070758;28;20185;-67
2022/12/06 01:43:49;;;;;;;14.00;11.40;;;2.50;99.90;;;;;;5070661;28;20258;-67
2022/12/06 01:46:28;;;;;;;10.87;9.80;;;2.50;99.90;;;;;;5071207;28;20204;-67
2022/12/06 01:49:20;;;;;;;16.90;13.23;;;2.50;99.90;;;;;;5071370;28;20261;-67
2022/12/06 01:51:53;;;;;;;10.43;8.60;;;2.50;99.90;;;;;;5071276;28;20242;-67
2022/12/06 01:54:19;;;;;;;12.40;10.07;;;2.50;99.90;;;;;;5050822;28;20248;-67
2022/12/06 01:56:46;;;;;;;15.10;10.57;;;2.50;99.90;;;;;;5070838;28;20198;-67
2022/12/06 01:59:13;;;;;;;12.87;9.77;;;2.50;99.90;;;;;;5071077;28;20170;-67
2022/12/06 02:01:39;;;;;;;12.00;10.83;;;2.60;99.90;;;;;;5070982;28;20186;-67
2022/12/06 02:04:05;;;;;;;11.60;9.53;;;2.60;99.90;;;;;;5071218;28;20518;-67
2022/12/06 02:06:32;;;;;;;14.37;10.53;;;2.50;99.90;;;;;;5071000;28;20198;-67
2022/12/06 02:08:59;;;;;;;10.77;9.57;;;2.50;99.90;;;;;;5071023;28;20170;-67
2022/12/06 02:11:25;;;;;;;12.20;10.70;;;2.60;99.90;;;;;;5070511;28;20170;-67
2022/12/06 02:13:51;;;;;;;13.07;9.97;;;2.60;99.90;;;;;;5071230;28;20173;-67
2022/12/06 02:16:44;;;;;;;13.77;10.93;;;2.60;99.90;;;;;;5101095;22;20483;-67
2022/12/06 02:19:54;;;;;;;10.50;8.57;;;2.60;99.90;;;;;;5090917;28;20664;-68
2022/12/06 02:22:45;;;;;;;17.40;11.97;;;2.60;99.90;;;;;;5036327;28;20190;-68
2022/12/06 02:25:20;;;;;;;12.73;11.47;;;2.60;99.90;;;;;;5042539;28;20205;-68
2022/12/06 02:28:18;;;;;;;12.80;11.43;;;2.60;99.90;;;;;;5062056;28;20174;-67
2022/12/06 02:31:07;;;;;;;12.60;10.00;;;2.60;99.90;;;;;;5015532;28;20194;-68
2022/12/06 02:33:52;;;;;;;10.00;9.00;;;2.60;99.90;;;;;;5071273;28;20166;-68
2022/12/06 02:36:46;;;;;;;11.63;9.40;;;2.60;99.90;;;;;;5071421;28;20212;-69
2022/12/06 02:39:20;;;;;;;25.63;11.60;;;2.60;99.90;;;;;;5074405;28;20648;-68
2022/12/06 02:42:07;;;;;;;12.13;10.93;;;2.60;99.90;;;;;;5074424;28;20182;-68
2022/12/06 02:44:44;;;;;;;15.87;12.20;;;2.60;99.90;;;;;;5074781;28;20649;-68
2022/12/06 02:47:14;;;;;;;11.43;10.27;;;2.60;99.90;;;;;;5074380;28;20674;-68
2022/12/06 02:49:45;;;;;;;10.43;9.17;;;2.60;99.90;;;;;;5074029;28;20166;-68
2022/12/06 02:52:13;;;;;;;15.03;12.00;;;2.60;99.90;;;;;;5074046;28;20182;-68
2022/12/06 02:54:40;;;;;;;16.87;11.00;;;2.70;99.90;;;;;;5074153;28;20248;-68
2022/12/06 02:57:06;;;;;;;13.27;11.13;;;2.70;99.90;;;;;;5073797;28;20178;-68
2022/12/06 02:59:31;;;;;;;11.83;10.63;;;2.70;99.90;;;;;;5071802;28;20171;-68
2022/12/06 03:02:00;;;;;;;13.67;12.37;;;2.70;99.90;;;;;;5073643;28;20182;-68
2022/12/06 03:05:10;;;;;;;12.87;11.60;;;2.70;99.90;;;;;;5074209;28;20194;-68
2022/12/06 03:07:46;;;;;;;10.47;9.47;;;2.70;99.90;;;;;;5018269;28;20255;-68
2022/12/06 03:10:21;;;;;;;15.07;11.27;;;2.70;99.90;;;;;;5073521;28;20188;-68
2022/12/06 03:13:14;;;;;;;16.90;10.60;;;2.70;99.90;;;;;;5073802;28;20182;-68
2022/12/06 03:15:59;;;;;;;16.20;11.77;;;2.70;99.90;;;;;;5073496;28;20210;-68
2022/12/06 03:19:14;;;;;;;19.13;11.77;;;2.80;99.90;;;;;;5073656;28;20208;-68
2022/12/06 03:21:45;;;;;;;14.23;10.90;;;2.70;99.90;;;;;;5030363;28;20269;-67
2022/12/06 03:24:14;;;;;;;12.53;10.80;;;2.80;99.90;;;;;;5073849;28;20174;-68
2022/12/06 03:26:44;;;;;;;18.77;11.67;;;2.80;99.90;;;;;;5073375;28;20194;-68
2022/12/06 03:29:12;;;;;;;12.17;10.90;;;2.80;99.90;;;;;;5072977;28;20643;-68
2022/12/06 03:31:40;;;;;;;10.20;9.40;;;2.80;99.90;;;;;;5069871;28;20166;-68
2022/12/06 03:34:18;;;;;;;12.77;11.47;;;2.80;99.90;;;;;;5053511;28;20190;-68
2022/12/06 03:36:46;;;;;;;13.33;11.37;;;2.90;99.90;;;;;;5055880;28;20586;-68
2022/12/06 03:39:15;;;;;;;14.00;12.57;;;2.90;99.90;;;;;;5073180;28;20266;-68
2022/12/06 03:41:50;;;;;;;15.03;12.57;;;2.90;99.90;;;;;;5073010;28;20184;-68
2022/12/06 03:44:16;;;;;;;15.40;11.37;;;2.90;99.90;;;;;;5073378;28;20669;-68
2022/12/06 03:46:47;;;;;;;13.03;11.70;;;2.90;99.90;;;;;;5072986;28;20218;-68
2022/12/06 03:49:44;;;;;;;14.17;11.93;;;2.90;99.90;;;;;;5071940;28;20170;-67
2022/12/06 03:52:10;;;;;;;19.70;14.17;;;2.80;99.90;;;;;;5071863;28;20208;-68
2022/12/06 03:54:38;;;;;;;13.90;11.47;;;2.90;99.90;;;;;;5072984;28;20190;-69
2022/12/06 03:57:04;;;;;;;19.70;12.20;;;2.80;99.90;;;;;;5072811;28;20668;-68
2022/12/06 03:59:30;;;;;;;14.20;10.57;;;2.90;99.90;;;;;;5072715;28;20173;-68
2022/12/06 04:01:55;;;;;;;14.43;11.60;;;2.90;99.90;;;;;;5072626;28;20228;-69
2022/12/06 04:04:21;;;;;;;19.83;11.17;;;2.90;99.90;;;;;;5070268;28;20167;-68
2022/12/06 04:06:47;;;;;;;16.30;10.63;;;2.90;99.90;;;;;;5052912;28;20245;-68
2022/12/06 04:11:56;;;;;;;12.57;8.77;;;2.90;99.90;;;;;;5072733;28;20181;-68
2022/12/06 04:14:22;;;;;;;16.07;11.10;;;2.90;99.90;;;;;;5072550;28;20194;-68
2022/12/06 04:19:32;;;;;;;12.33;10.77;;;2.90;99.90;;;;;;5052513;28;20564;-68
2022/12/06 04:24:41;;;;;;;17.67;11.30;;;2.90;99.90;;;;;;5052632;28;20189;-67
2022/12/06 04:40:47;;;;;;;12.33;11.13;;;2.90;99.90;;;;;;5066581;28;20189;-68
2022/12/06 04:45:57;;;;;;;11.30;10.27;;;3.00;99.90;;;;;;5071911;28;20205;-68
2022/12/06 04:48:22;;;;;;;14.17;11.70;;;3.00;99.90;;;;;;5071780;28;20190;-69
2022/12/06 04:50:51;;;;;;;16.20;11.83;;;3.10;99.90;;;;;;5070774;28;20642;-68
2022/12/06 04:53:17;;;;;;;21.87;13.00;;;3.10;99.90;;;;;;5071697;28;20200;-68
2022/12/06 04:55:46;;;;;;;21.67;13.47;;;3.10;99.90;;;;;;5071695;28;20340;-68
2022/12/06 04:58:13;;;;;;;15.73;11.47;;;3.10;99.90;;;;;;5071562;28;20502;-68
2022/12/06 05:00:42;;;;;;;16.33;12.93;;;3.20;99.90;;;;;;5071399;28;20224;-68
2022/12/06 05:03:17;;;;;;;23.07;13.87;;;3.20;99.90;;;;;;5071376;28;20724;-68
2022/12/06 05:05:42;;;;;;;12.77;11.60;;;3.20;99.90;;;;;;5071728;28;20272;-68
2022/12/06 05:08:08;;;;;;;14.13;12.87;;;3.20;99.90;;;;;;5070953;28;20686;-68
2022/12/06 05:10:35;;;;;;;13.40;12.03;;;3.20;99.90;;;;;;5069179;28;20178;-68
2022/12/06 05:13:01;;;;;;;20.27;13.93;;;3.20;99.90;;;;;;5071225;28;20292;-68
2022/12/06 05:15:27;;;;;;;19.10;13.17;;;3.20;99.90;;;;;;5071451;28;20717;-68
2022/12/06 05:17:53;;;;;;;13.97;12.30;;;3.20;99.90;;;;;;5073787;28;20391;-68
2022/12/06 05:20:18;;;;;;;17.67;13.70;;;3.20;99.90;;;;;;5080343;28;20189;-68
2022/12/06 05:22:44;;;;;;;18.77;14.13;;;3.20;99.90;;;;;;5077973;28;20695;-68
2022/12/06 05:25:10;;;;;;;15.90;13.43;;;3.20;99.90;;;;;;5071243;28;20269;-68
2022/12/06 05:27:36;;;;;;;14.60;12.97;;;3.10;99.90;;;;;;5071517;28;20704;-68
2022/12/06 05:30:02;;;;;;;20.47;14.20;;;3.20;99.90;;;;;;5070816;28;20178;-67
2022/12/06 05:32:28;;;;;;;13.27;12.03;;;3.20;99.90;;;;;;5071478;28;20261;-67
2022/12/06 05:34:54;;;;;;;15.57;14.00;;;3.20;99.90;;;;;;5070963;28;20284;-67
2022/12/06 05:37:19;;;;;;;22.83;15.83;;;3.10;99.90;;;;;;5071394;28;20711;-67
2022/12/06 05:39:45;;;;;;;18.33;13.40;;;3.20;99.90;;;;;;5070766;28;20197;-67
2022/12/06 05:42:10;;;;;;;17.33;14.10;;;3.20;99.90;;;;;;5071127;28;20256;-68
2022/12/06 05:44:36;;;;;;;21.13;13.47;;;3.30;99.90;;;;;;5068119;28;20185;-67
2022/12/06 05:47:01;;;;;;;21.33;12.53;;;4.60;99.90;;;;;;5071108;28;20208;-67
2022/12/06 05:49:27;;;;;;;21.50;15.33;;;3.30;99.90;;;;;;5071112;28;20174;-67
2022/12/06 05:51:53;;;;;;;18.00;13.57;;;3.30;99.90;;;;;;5069711;28;20209;-67
2022/12/06 05:54:19;;;;;;;15.27;13.13;;;3.30;99.90;;;;;;5071101;28;20224;-67
2022/12/06 05:56:45;;;;;;;15.00;12.63;;;3.40;99.90;;;;;;5053260;28;20194;-67
2022/12/06 05:59:10;;;;;;;20.70;13.67;;;3.40;99.90;;;;;;5070683;28;20243;-67
2022/12/06 06:01:36;;;;;;;17.77;14.00;;;3.40;99.90;;;;;;5071091;28;20173;-67
2022/12/06 06:04:02;;;;;;;15.93;14.30;;;3.40;99.90;;;;;;5070829;28;20213;-68
2022/12/06 06:06:27;;;;;;;17.27;14.83;;;3.40;99.90;;;;;;5071253;28;20190;-67
2022/12/06 06:08:53;;;;;;;19.00;14.57;;;3.50;99.90;;;;;;5070641;28;20190;-67
2022/12/06 06:11:19;;;;;;;19.03;14.30;;;3.50;99.90;;;;;;5071972;28;20174;-68
2022/12/06 06:13:45;;;;;;;16.63;14.77;;;3.50;99.90;;;;;;5074543;28;20181;-67
2022/12/06 06:16:11;;;;;;;19.93;13.73;;;3.50;99.90;;;;;;5073231;28;20213;-68
2022/12/06 06:18:36;;;;;;;12.70;11.37;;;3.50;99.90;;;;;;5072914;28;20174;-67
2022/12/06 06:21:02;;;;;;;15.73;12.07;;;3.60;99.90;;;;;;5074147;28;20170;-67
2022/12/06 06:23:28;;;;;;;21.87;14.07;;;3.60;99.90;;;;;;5070982;28;20205;-68
2022/12/06 06:25:54;;;;;;;15.30;12.60;;;3.60;99.90;;;;;;5074478;28;20194;-67
2022/12/06 06:28:20;;;;;;;18.13;12.90;;;3.60;99.90;;;;;;5074821;28;20688;-67
2022/12/06 06:30:46;;;;;;;13.30;12.10;;;3.60;99.90;;;;;;5074019;28;20174;-68
2022/12/06 06:33:12;;;;;;;19.13;14.40;;;3.70;99.90;;;;;;5074465;28;20174;-67
2022/12/06 06:35:39;;;;;;;16.60;13.13;;;3.70;99.90;;;;;;5074117;28;20210;-67
2022/12/06 06:38:04;;;;;;;18.73;13.70;;;3.70;99.90;;;;;;5074359;28;20515;-67
2022/12/06 06:40:31;;;;;;;22.80;13.50;;;3.70;99.90;;;;;;5074091;28;20220;-67
2022/12/06 06:42:57;;;;;;;17.83;13.97;;;3.70;99.90;;;;;;5056214;28;20174;-67
2022/12/06 06:45:23;;;;;;;16.90;13.43;;;3.70;99.90;;;;;;5074016;28;20198;-67
2022/12/06 06:47:49;;;;;;;14.23;12.27;;;3.70;99.90;;;;;;5074035;28;20189;-67
2022/12/06 06:50:15;;;;;;;20.90;13.50;;;3.70;99.90;;;;;;5070683;28;20186;-67
2022/12/06 06:52:40;;;;;;;15.30;13.70;;;3.70;99.90;;;;;;5056331;28;20182;-67
2022/12/06 06:55:06;;;;;;;19.07;12.17;;;3.70;99.90;;;;;;5073722;28;20210;-67
2022/12/06 06:57:34;;;;;;;15.43;12.83;;;3.70;99.90;;;;;;5074132;28;20174;-67
2022/12/06 06:59:59;;;;;;;14.17;12.80;;;3.60;99.90;;;;;;5073395;28;20169;-67
2022/12/06 07:02:25;;;;;;;21.40;13.77;;;3.70;99.90;;;;;;5074063;28;20170;-67
2022/12/06 07:04:50;;;;;;;18.83;14.07;;;3.70;99.90;;;;;;5073659;28;20227;-67
2022/12/06 07:07:16;;;;;;;17.43;13.23;;;3.70;99.90;;;;;;5073978;28;20257;-67
2022/12/06 07:09:42;;;;;;;24.07;14.17;;;3.70;99.90;;;;;;5073487;28;20673;-67
2022/12/06 07:12:07;;;;;;;18.47;12.90;;;3.70;99.90;;;;;;5073737;28;20178;-67
2022/12/06 07:14:33;;;;;;;19.63;13.70;;;3.80;99.90;;;;;;5073685;28;20221;-68
2022/12/06 07:16:59;;;;;;;22.33;14.73;;;3.80;99.90;;;;;;5073525;28;20198;-67
2022/12/06 07:19:24;;;;;;;25.73;12.77;;;3.80;99.90;;;;;;5073253;28;20162;-67
2022/12/06 07:21:50;;;;;;;23.80;15.00;;;3.80;99.90;;;;;;5073412;28;20640;-67
2022/12/06 07:24:16;;;;;;;18.30;14.77;;;3.80;99.90;;;;;;5073854;28;20177;-67
2022/12/06 07:26:41;;;;;;;19.20;14.10;;;3.90;99.90;;;;;;5073462;28;20226;-67
2022/12/06 07:29:07;;;;;;;15.27;12.70;;;3.90;99.90;;;;;;5073271;28;20189;-67
2022/12/06 07:31:33;;;;;;;14.27;11.73;;;3.90;99.90;;;;;;5073266;28;20205;-67
2022/12/06 07:34:00;;;;;;;15.67;13.33;;;4.00;99.90;;;;;;5055260;28;20213;-67
2022/12/06 07:36:29;;;;;;;22.63;14.80;;;4.00;99.90;;;;;;5073212;28;20210;-67
2022/12/06 07:38:57;;;;;;;19.03;12.00;;;4.00;99.90;;;;;;5055301;28;20220;-67
2022/12/06 07:46:55;;;;;;;17.90;11.90;;;4.10;99.90;;;;;;5073172;28;20243;-67
2022/12/06 07:49:21;;;;;;;19.00;13.33;;;4.10;99.90;;;;;;5072981;28;20174;-67
2022/12/06 07:51:47;;;;;;;35.20;13.53;;;4.20;99.90;;;;;;5072720;28;20228;-67
2022/12/06 07:54:14;;;;;;;16.27;11.83;;;4.20;99.90;;;;;;5072982;28;20166;-67
2022/12/06 07:56:41;;;;;;;19.53;14.23;;;4.30;99.90;;;;;;5072856;28;20190;-67
2022/12/06 07:59:07;;;;;;;21.47;13.10;;;4.30;99.90;;;;;;5072655;28;20170;-67
2022/12/06 08:01:32;;;;;;;18.50;13.97;;;4.40;99.90;;;;;;5072674;28;20224;-68
2022/12/06 08:04:02;;;;;;;29.83;16.53;;;4.40;99.90;;;;;;5072577;28;20174;-68
2022/12/06 08:06:30;;;;;;;27.53;13.40;;;4.50;99.90;;;;;;5073065;28;20273;-67
2022/12/06 08:08:56;;;;;;;18.20;11.93;;;4.50;99.90;;;;;;5075788;28;20170;-67
2022/12/06 08:11:21;;;;;;;17.23;13.43;;;4.50;99.90;;;;;;5077078;28;20185;-67
2022/12/06 08:13:47;;;;;;;14.67;10.93;;;4.50;99.90;;;;;;5077538;28;20166;-67
2022/12/06 08:16:13;;;;;;;12.93;10.70;;;4.50;99.90;;;;;;5062812;28;20619;-68
2022/12/06 08:18:40;;;;;;;26.47;12.03;;;4.60;99.90;;;;;;5072698;28;20171;-67
2022/12/06 08:21:07;;;;;;;22.17;13.17;;;4.60;99.90;;;;;;5072198;28;20571;-68
2022/12/06 08:23:33;;;;;;;11.17;10.00;;;4.60;99.90;;;;;;5073732;28;20173;-68
2022/12/06 08:26:11;;;;;;;13.57;10.87;;;4.70;99.90;;;;;;5073664;28;20260;-68
2022/12/06 08:28:37;;;;;;;30.20;13.17;;;4.70;99.90;;;;;;5071044;28;20184;-67
2022/12/06 08:31:08;;;;;;;18.77;12.93;;;4.80;99.90;;;;;;5071869;28;20182;-68
2022/12/06 08:33:34;;;;;;;22.60;13.37;;;4.80;99.90;;;;;;5071444;28;20174;-68
2022/12/06 08:36:00;;;;;;;19.30;12.50;;;4.90;99.90;;;;;;5071692;28;20209;-68
2022/12/06 08:38:27;;;;;;;27.00;13.30;;;4.90;99.90;;;;;;5072284;28;20699;-67
2022/12/06 08:40:53;;;;;;;23.87;13.97;;;4.90;99.90;;;;;;5071786;28;20182;-68
2022/12/06 08:43:18;;;;;;;22.77;11.80;;;5.00;99.90;;;;;;5071846;28;20166;-68
2022/12/06 08:45:49;;;;;;;14.30;10.83;;;5.00;99.90;;;;;;5072298;28;20590;-68
2022/12/06 08:48:15;;;;;;;20.30;10.77;;;5.10;99.90;;;;;;5071696;28;20546;-68
2022/12/06 08:50:40;;;;;;;33.93;13.73;;;5.10;99.90;;;;;;5071665;28;20170;-68
2022/12/06 08:53:06;;;;;;;15.03;12.20;;;5.10;99.90;;;;;;5071918;28;20323;-69
2022/12/06 08:55:32;;;;;;;17.17;10.90;;;5.10;99.90;;;;;;5071304;28;20217;-68
2022/12/06 08:57:57;;;;;;;18.67;11.17;;;5.00;99.90;;;;;;5071845;28;20201;-68
2022/12/06 09:00:23;;;;;;;19.63;11.87;;;5.10;99.90;;;;;;5071673;28;20527;-68
2022/12/06 09:02:48;;;;;;;15.20;10.00;;;5.10;99.90;;;;;;5071052;28;20174;-68
2022/12/06 09:05:14;;;;;;;12.13;10.53;;;5.10;99.90;;;;;;5071637;28;20204;-68
2022/12/06 09:07:40;;;;;;;16.27;11.10;;;5.20;99.90;;;;;;5071609;28;20257;-68
2022/12/06 09:10:06;;;;;;;18.73;10.10;;;5.20;99.90;;;;;;5071713;28;20204;-67
2022/12/06 09:12:31;;;;;;;18.53;11.20;;;5.20;99.90;;;;;;5071790;28;20227;-67
2022/12/06 09:14:57;;;;;;;16.83;8.97;;;5.30;99.90;;;;;;5071407;28;20193;-68
2022/12/06 09:17:23;;;;;;;16.60;10.97;;;5.30;99.90;;;;;;5071515;28;20213;-68
2022/12/06 09:19:48;;;;;;;17.73;9.80;;;5.40;99.90;;;;;;5071293;28;20612;-68
2022/12/06 09:22:14;;;;;;;16.07;12.20;;;5.50;99.90;;;;;;5071357;28;20220;-67
2022/12/06 09:24:39;;;;;;;12.50;10.50;;;5.50;99.90;;;;;;5071815;28;20170;-67
2022/12/06 09:27:05;;;;;;;17.40;11.03;;;5.50;99.90;;;;;;5071337;28;20193;-67
2022/12/06 09:29:33;;;;;;;10.90;9.80;;;5.60;99.90;;;;;;5071225;28;20701;-67
2022/12/06 09:31:58;;;;;;;12.60;10.10;;;5.60;99.90;;;;;;5053268;28;20188;-68
2022/12/06 09:34:24;;;;;;;14.97;9.70;;;5.60;99.90;;;;;;5053255;28;20269;-67
2022/12/06 09:37:22;;;;;;;11.17;9.77;;;5.60;99.90;;;;;;5071322;28;20186;-67
2022/12/06 09:40:00;;;;;;;15.83;10.60;;;5.50;99.90;;;;;;5046857;28;20191;-67
2022/12/06 09:42:50;;;;;;;16.80;10.87;;;5.60;99.90;;;;;;5066096;28;20170;-68
2022/12/06 09:45:21;;;;;;;11.97;10.03;;;5.70;99.90;;;;;;5071455;28;20631;-68
2022/12/06 09:48:09;;;;;;;10.57;9.47;;;5.70;99.90;;;;;;5074697;28;20186;-67
2022/12/06 09:50:53;;;;;;;18.00;10.83;;;5.70;99.90;;;;;;5074738;28;20178;-67
2022/12/06 09:53:35;;;;;;;17.20;9.57;;;5.70;99.90;;;;;;5055733;28;20256;-68
2022/12/06 09:56:05;;;;;;;13.33;9.20;;;5.70;99.90;;;;;;5056234;28;20203;-68
2022/12/06 09:58:31;;;;;;;12.53;9.97;;;5.70;99.90;;;;;;5075551;28;20643;-68
2022/12/06 10:01:17;;;;;;;11.97;10.13;;;5.80;99.90;;;;;;5074640;28;20180;-67
2022/12/06 10:03:58;;;;;;;20.10;10.80;;;5.80;99.90;;;;;;5055469;28;20695;-68
2022/12/06 10:06:35;;;;;;;11.47;9.83;;;5.90;99.90;;;;;;5058694;28;20201;-67
2022/12/06 10:09:25;;;;;;;9.83;8.97;;;5.90;99.90;;;;;;5075125;28;20223;-68
2022/12/06 10:12:16;;;;;;;13.27;10.07;;;6.00;99.90;;;;;;5074730;28;20182;-68
2022/12/06 10:14:41;;;;;;;14.50;9.30;;;5.90;99.90;;;;;;5075077;28;20232;-68
2022/12/06 10:17:25;;;;;;;12.67;9.50;;;5.90;99.90;;;;;;5073877;28;20225;-68
2022/12/06 10:19:56;;;;;;;11.47;9.50;;;5.90;99.90;;;;;;5056286;28;20186;-68
2022/12/06 10:22:40;;;;;;;11.03;9.93;;;5.90;99.90;;;;;;5075066;28;20632;-67
2022/12/06 10:25:32;;;;;;;9.50;8.57;;;5.90;99.90;;;;;;5074561;28;20213;-67
2022/12/06 10:28:10;;;;;;;10.83;9.73;;;5.90;99.90;;;;;;5074610;28;20231;-68
2022/12/06 10:30:44;;;;;;;12.83;10.77;;;5.90;99.90;;;;;;5074441;28;20189;-67
2022/12/06 10:33:19;;;;;;;9.40;8.57;;;5.90;99.90;;;;;;5075220;28;20174;-68
2022/12/06 10:35:57;;;;;;;8.80;7.93;;;5.90;99.90;;;;;;5074440;28;20288;-67
2022/12/06 10:38:27;;;;;;;10.23;8.90;;;5.90;99.90;;;;;;5057185;28;20265;-68
2022/12/06 10:41:01;;;;;;;13.40;9.63;;;5.90;99.90;;;;;;5074265;28;20554;-67
2022/12/06 10:43:53;;;;;;;10.33;8.97;;;5.90;99.90;;;;;;5074925;28;20172;-67
2022/12/06 10:49:31;;;;;;;9.20;8.30;;;5.90;99.90;;;;;;5074570;28;20305;-67
2022/12/06 10:51:59;;;;;;;9.93;8.40;;;5.90;99.90;;;;;;5073538;28;20209;-68
2022/12/06 10:54:47;;;;;;;9.80;8.90;;;5.90;99.90;;;;;;5074805;28;20689;-68
2022/12/06 10:57:21;;;;;;;9.20;8.27;;;6.00;99.90;;;;;;5074103;28;20189;-67
2022/12/06 11:00:20;;;;;;;9.97;8.97;;;6.10;99.90;;;;;;5074416;28;20196;-68
2022/12/06 11:02:55;;;;;;;10.87;9.87;;;6.10;99.90;;;;;;5054724;28;20182;-67
2022/12/06 11:05:32;;;;;;;9.40;8.47;;;6.10;99.90;;;;;;5055351;28;20186;-67
2022/12/06 11:08:09;;;;;;;11.17;8.90;;;6.00;99.90;;;;;;5074088;28;20182;-68
2022/12/06 11:10:37;;;;;;;10.53;8.80;;;6.00;99.90;;;;;;5074645;28;20170;-68
2022/12/06 11:13:16;;;;;;;9.67;8.73;;;5.90;99.90;;;;;;5086127;28;20196;-67
2022/12/06 11:15:48;;;;;;;9.80;8.70;;;6.00;99.90;;;;;;5093086;28;20197;-67
2022/12/06 11:18:16;;;;;;;11.00;8.17;;;6.00;99.90;;;;;;5077333;28;20178;-67
2022/12/06 11:21:03;;;;;;;10.13;8.77;;;6.00;99.90;;;;;;5094404;28;20212;-67
2022/12/06 11:23:44;;;;;;;8.90;8.00;;;6.10;99.90;;;;;;5094582;28;20177;-67
2022/12/06 11:26:34;;;;;;;13.90;10.73;;;6.10;99.90;;;;;;5094466;28;20198;-66
2022/12/06 11:29:05;;;;;;;8.63;7.93;;;6.10;99.90;;;;;;5094792;28;20178;-67
2022/12/06 11:31:37;;;;;;;12.07;9.07;;;6.20;99.90;;;;;;5089438;28;20190;-67
2022/12/06 11:34:05;;;;;;;9.10;8.10;;;6.20;99.90;;;;;;5095751;28;20170;-68
2022/12/06 11:36:31;;;;;;;17.60;8.63;;;6.20;99.90;;;;;;5093374;28;20214;-67
2022/12/06 11:38:58;;;;;;;9.63;8.67;;;6.30;99.90;;;;;;5053427;28;20707;-68
2022/12/06 11:41:32;;;;;;;8.03;7.33;;;6.40;99.90;;;;;;5075850;28;20266;-66
2022/12/06 11:43:58;;;;;;;9.07;8.17;;;6.30;99.90;;;;;;5074237;28;20227;-68
2022/12/06 11:46:24;;;;;;;8.70;7.90;;;6.30;99.90;;;;;;5073447;28;20214;-68
2022/12/06 11:48:51;;;;;;;8.50;7.70;;;6.30;99.90;;;;;;5055488;28;20555;-67
2022/12/06 11:51:23;;;;;;;8.57;7.77;;;6.40;99.90;;;;;;5071833;28;20595;-67
2022/12/06 11:54:13;;;;;;;9.30;8.40;;;6.40;99.90;;;;;;5073277;28;20538;-67
2022/12/06 11:56:39;;;;;;;8.50;7.80;;;6.40;99.90;;;;;;5072703;28;20206;-68
2022/12/06 11:59:20;;;;;;;8.30;7.53;;;6.40;99.90;;;;;;5072803;28;20190;-67
2022/12/06 12:01:49;;;;;;;8.23;7.53;;;6.40;99.90;;;;;;5072625;28;20221;-68
2022/12/06 12:04:25;;;;;;;8.20;7.50;;;6.40;99.90;;;;;;5072820;28;20607;-67
2022/12/06 12:06:59;;;;;;;8.17;7.47;;;6.40;99.90;;;;;;5072387;28;20552;-68
2022/12/06 12:09:29;;;;;;;6.57;6.23;;;6.40;99.90;;;;;;5071583;28;20209;-67
2022/12/06 12:12:00;;;;;;;12.33;8.33;;;6.40;99.90;;;;;;5069140;28;20194;-68
2022/12/06 12:14:32;;;;;;;10.03;9.03;;;6.40;99.90;;;;;;5072007;28;20280;-68
2022/12/06 12:17:01;;;;;;;10.23;8.77;;;6.50;99.90;;;;;;5072135;28;20241;-68
2022/12/06 12:19:32;;;;;;;9.40;8.60;;;6.50;99.90;;;;;;5072441;28;20174;-68
2022/12/06 12:21:59;;;;;;;9.67;8.03;;;6.60;99.90;;;;;;5072365;28;20269;-68
2022/12/06 12:24:48;;;;;;;8.50;7.73;;;6.60;99.90;;;;;;5072501;28;20174;-68
2022/12/06 12:27:38;;;;;;;8.40;7.60;;;6.60;99.90;;;;;;5072247;28;20182;-67
2022/12/06 12:30:50;;;;;;;9.10;7.80;;;6.70;99.90;;;;;;5053546;28;20640;-68
2022/12/06 12:33:18;;;;;;;8.00;7.40;;;6.70;99.90;;;;;;4954985;28;20273;-67
2022/12/06 12:35:53;;;;;;;9.83;8.93;;;6.80;99.90;;;;;;5059123;28;20291;-67
2022/12/06 12:38:42;;;;;;;9.03;8.20;;;6.80;99.90;;;;;;5072514;28;20201;-68
2022/12/06 12:41:28;;;;;;;10.03;9.07;;;6.90;99.90;;;;;;5071683;28;20323;-68
2022/12/06 12:43:58;;;;;;;10.00;9.10;;;7.00;99.90;;;;;;5070114;28;20488;-67
2022/12/06 12:46:24;;;;;;;10.37;9.37;;;7.00;99.90;;;;;;5068055;28;20209;-67
2022/12/06 12:48:50;;;;;;;9.10;8.17;;;7.10;99.90;;;;;;5072148;28;20660;-67
2022/12/06 12:51:31;;;;;;;9.50;8.60;;;7.10;99.90;;;;;;5071404;28;20180;-67
2022/12/06 12:54:00;;;;;;;10.10;8.83;;;7.20;99.90;;;;;;5071745;28;20261;-68
2022/12/06 12:56:27;;;;;;;8.47;7.43;;;7.30;99.90;;;;;;5071794;28;20202;-68
2022/12/06 12:58:55;;;;;;;8.63;7.93;;;7.20;99.90;;;;;;5071629;28;20190;-68
2022/12/06 13:01:24;;;;;;;8.80;8.10;;;7.20;99.90;;;;;;5073768;28;20174;-67
2022/12/06 13:04:08;;;;;;;8.83;8.03;;;7.10;99.90;;;;;;5073495;28;20182;-68
2022/12/06 13:06:44;;;;;;;8.07;7.47;;;7.00;99.90;;;;;;5072780;28;20198;-67
2022/12/06 13:09:46;;;;;;;8.07;7.43;;;7.00;99.90;;;;;;5074698;28;20185;-67
2022/12/06 13:12:36;;;;;;;7.97;6.70;;;7.00;99.90;;;;;;5076671;28;20176;-67
2022/12/06 13:15:46;;;;;;;7.13;6.53;;;7.00;99.90;;;;;;5073728;28;20630;-67
2022/12/06 13:18:30;;;;;;;7.40;6.80;;;6.90;99.90;;;;;;5034736;28;20251;-67
2022/12/06 13:21:03;;;;;;;8.33;6.83;;;6.60;99.90;;;;;;5075278;28;20178;-67
2022/12/06 13:23:34;;;;;;;7.10;6.60;;;6.40;99.90;;;;;;5076384;28;20270;-67
2022/12/06 13:26:24;;;;;;;7.83;7.20;;;6.30;99.90;;;;;;5075368;28;20205;-67
2022/12/06 13:28:53;;;;;;;7.73;7.10;;;6.20;99.90;;;;;;5075977;28;20178;-67
2022/12/06 13:31:23;;;;;;;7.30;6.80;;;6.10;99.90;;;;;;5076179;28;20538;-67
2022/12/06 13:34:01;;;;;;;8.07;7.37;;;6.00;99.90;;;;;;5075390;28;20683;-67
2022/12/06 13:36:31;;;;;;;8.90;8.23;;;6.00;99.90;;;;;;5076604;28;20210;-67